sensor_id;sensor_type;location;lat;lon;timestamp;P1;durP1;ratioP1;P2;durP2;ratioP2
8665;SDS011;4370;48.916;8.380;2022-12-11T00:00:18;34.10;;;19.43;;
8665;SDS011;4370;48.916;8.380;2022-12-11T00:02:45;35.13;;;19.80;;
8665;SDS011;4370;48.916;8.380;2022-12-11T00:05:10;33.17;;;18.70;;
8665;SDS011;4370;48.916;8.380;2022-12-11T00:07:36;31.27;;;17.50;;
8665;SDS011;4370;48.916;8.380;2022-12-11T00:10:03;35.10;;;19.53;;
8665;SDS011;4370;48.916;8.380;2022-12-11T00:12:29;30.80;;;17.40;;
8665;SDS011;4370;48.916;8.380;2022-12-11T00:14:55;27.97;;;16.43;;
8665;SDS011;4370;48.916;8.380;2022-12-11T00:17:21;25.60;;;15.67;;
8665;SDS011;4370;48.916;8.380;2022-12-11T00:19:47;35.67;;;17.73;;
8665;SDS011;4370;48.916;8.380;2022-12-11T00:22:13;48.33;;;21.93;;
8665;SDS011;4370;48.916;8.380;2022-12-11T00:24:39;49.57;;;23.73;;
8665;SDS011;4370;48.916;8.380;2022-12-11T00:27:05;59.77;;;26.27;;
8665;SDS011;4370;48.916;8.380;2022-12-11T00:29:31;54.70;;;26.17;;
8665;SDS011;4370;48.916;8.380;2022-12-11T00:31:57;62.70;;;27.63;;
8665;SDS011;4370;48.916;8.380;2022-12-11T00:34:23;62.17;;;27.87;;
8665;SDS011;4370;48.916;8.380;2022-12-11T00:36:49;68.07;;;29.50;;
8665;SDS011;4370;48.916;8.380;2022-12-11T00:39:15;66.97;;;27.47;;
8665;SDS011;4370;48.916;8.380;2022-12-11T00:41:41;63.63;;;29.60;;
8665;SDS011;4370;48.916;8.380;2022-12-11T00:44:07;69.77;;;29.17;;
8665;SDS011;4370;48.916;8.380;2022-12-11T00:46:33;64.30;;;28.27;;
8665;SDS011;4370;48.916;8.380;2022-12-11T00:48:59;66.37;;;30.20;;
8665;SDS011;4370;48.916;8.380;2022-12-11T00:51:24;63.83;;;29.13;;
8665;SDS011;4370;48.916;8.380;2022-12-11T00:53:50;58.73;;;27.93;;
8665;SDS011;4370;48.916;8.380;2022-12-11T00:56:18;55.77;;;27.43;;
8665;SDS011;4370;48.916;8.380;2022-12-11T00:58:46;54.03;;;27.50;;
8665;SDS011;4370;48.916;8.380;2022-12-11T01:01:14;47.97;;;26.57;;
8665;SDS011;4370;48.916;8.380;2022-12-11T01:03:42;54.90;;;27.27;;
8665;SDS011;4370;48.916;8.380;2022-12-11T01:06:12;55.30;;;28.23;;
8665;SDS011;4370;48.916;8.380;2022-12-11T01:08:39;65.37;;;30.27;;
8665;SDS011;4370;48.916;8.380;2022-12-11T01:11:06;66.10;;;31.33;;
8665;SDS011;4370;48.916;8.380;2022-12-11T01:13:34;59.87;;;30.03;;
8665;SDS011;4370;48.916;8.380;2022-12-11T01:16:04;60.77;;;29.53;;
8665;SDS011;4370;48.916;8.380;2022-12-11T01:18:34;64.60;;;31.13;;
8665;SDS011;4370;48.916;8.380;2022-12-11T01:21:04;61.40;;;31.17;;
8665;SDS011;4370;48.916;8.380;2022-12-11T01:23:30;60.73;;;29.37;;
8665;SDS011;4370;48.916;8.380;2022-12-11T01:25:56;69.77;;;30.50;;
8665;SDS011;4370;48.916;8.380;2022-12-11T01:28:22;64.47;;;30.53;;
8665;SDS011;4370;48.916;8.380;2022-12-11T01:30:47;63.10;;;30.13;;
8665;SDS011;4370;48.916;8.380;2022-12-11T01:33:13;61.43;;;30.43;;
8665;SDS011;4370;48.916;8.380;2022-12-11T01:35:39;71.63;;;32.53;;
8665;SDS011;4370;48.916;8.380;2022-12-11T01:38:05;71.13;;;32.00;;
8665;SDS011;4370;48.916;8.380;2022-12-11T01:40:31;59.80;;;29.37;;
8665;SDS011;4370;48.916;8.380;2022-12-11T01:42:57;67.97;;;30.93;;
8665;SDS011;4370;48.916;8.380;2022-12-11T01:45:27;66.80;;;31.60;;
8665;SDS011;4370;48.916;8.380;2022-12-11T01:48:13;67.67;;;31.27;;
8665;SDS011;4370;48.916;8.380;2022-12-11T01:50:44;64.33;;;31.90;;
8665;SDS011;4370;48.916;8.380;2022-12-11T01:53:16;70.20;;;32.07;;
8665;SDS011;4370;48.916;8.380;2022-12-11T01:55:45;69.80;;;30.57;;
8665;SDS011;4370;48.916;8.380;2022-12-11T01:58:12;64.00;;;30.17;;
8665;SDS011;4370;48.916;8.380;2022-12-11T02:00:38;63.97;;;30.57;;
8665;SDS011;4370;48.916;8.380;2022-12-11T02:03:04;66.97;;;30.50;;
8665;SDS011;4370;48.916;8.380;2022-12-11T02:05:30;67.80;;;29.37;;
8665;SDS011;4370;48.916;8.380;2022-12-11T02:07:56;68.83;;;31.27;;
8665;SDS011;4370;48.916;8.380;2022-12-11T02:10:27;60.50;;;29.57;;
8665;SDS011;4370;48.916;8.380;2022-12-11T02:13:10;66.03;;;30.73;;
8665;SDS011;4370;48.916;8.380;2022-12-11T02:15:50;63.03;;;30.27;;
8665;SDS011;4370;48.916;8.380;2022-12-11T02:21:24;66.03;;;30.50;;
8665;SDS011;4370;48.916;8.380;2022-12-11T02:24:09;61.03;;;29.40;;
8665;SDS011;4370;48.916;8.380;2022-12-11T02:29:32;64.23;;;30.37;;
8665;SDS011;4370;48.916;8.380;2022-12-11T02:32:03;62.70;;;28.20;;
8665;SDS011;4370;48.916;8.380;2022-12-11T02:34:44;70.13;;;30.93;;
8665;SDS011;4370;48.916;8.380;2022-12-11T02:37:20;64.43;;;30.37;;
8665;SDS011;4370;48.916;8.380;2022-12-11T02:39:49;70.20;;;31.03;;
8665;SDS011;4370;48.916;8.380;2022-12-11T02:42:17;71.33;;;31.23;;
8665;SDS011;4370;48.916;8.380;2022-12-11T02:44:45;78.40;;;31.20;;
8665;SDS011;4370;48.916;8.380;2022-12-11T02:47:14;76.40;;;32.23;;
8665;SDS011;4370;48.916;8.380;2022-12-11T02:49:42;71.27;;;30.40;;
8665;SDS011;4370;48.916;8.380;2022-12-11T02:52:11;71.03;;;31.00;;
8665;SDS011;4370;48.916;8.380;2022-12-11T02:54:39;65.53;;;30.27;;
8665;SDS011;4370;48.916;8.380;2022-12-11T02:57:12;66.50;;;29.80;;
8665;SDS011;4370;48.916;8.380;2022-12-11T02:59:41;69.73;;;31.17;;
8665;SDS011;4370;48.916;8.380;2022-12-11T03:02:10;69.17;;;32.23;;
8665;SDS011;4370;48.916;8.380;2022-12-11T03:04:37;69.33;;;30.07;;
8665;SDS011;4370;48.916;8.380;2022-12-11T03:07:11;67.40;;;30.50;;
8665;SDS011;4370;48.916;8.380;2022-12-11T03:09:43;76.70;;;32.77;;
8665;SDS011;4370;48.916;8.380;2022-12-11T03:12:14;75.47;;;32.77;;
8665;SDS011;4370;48.916;8.380;2022-12-11T03:14:44;70.53;;;30.87;;
8665;SDS011;4370;48.916;8.380;2022-12-11T03:17:24;66.33;;;31.20;;
8665;SDS011;4370;48.916;8.380;2022-12-11T03:20:07;70.07;;;30.47;;
8665;SDS011;4370;48.916;8.380;2022-12-11T03:22:39;77.07;;;30.40;;
8665;SDS011;4370;48.916;8.380;2022-12-11T03:25:11;71.93;;;30.73;;
8665;SDS011;4370;48.916;8.380;2022-12-11T03:27:46;72.07;;;29.60;;
8665;SDS011;4370;48.916;8.380;2022-12-11T03:30:14;68.47;;;29.67;;
8665;SDS011;4370;48.916;8.380;2022-12-11T03:32:48;68.20;;;29.80;;
8665;SDS011;4370;48.916;8.380;2022-12-11T03:38:10;63.97;;;29.00;;
8665;SDS011;4370;48.916;8.380;2022-12-11T03:40:42;62.37;;;29.37;;
8665;SDS011;4370;48.916;8.380;2022-12-11T03:43:10;69.67;;;29.57;;
8665;SDS011;4370;48.916;8.380;2022-12-11T03:45:36;71.60;;;31.37;;
8665;SDS011;4370;48.916;8.380;2022-12-11T03:48:04;66.33;;;29.33;;
8665;SDS011;4370;48.916;8.380;2022-12-11T03:50:31;61.43;;;28.93;;
8665;SDS011;4370;48.916;8.380;2022-12-11T03:52:58;59.87;;;28.73;;
8665;SDS011;4370;48.916;8.380;2022-12-11T03:55:24;64.27;;;29.53;;
8665;SDS011;4370;48.916;8.380;2022-12-11T03:57:51;69.97;;;29.70;;
8665;SDS011;4370;48.916;8.380;2022-12-11T04:00:18;64.97;;;29.87;;
8665;SDS011;4370;48.916;8.380;2022-12-11T04:02:44;68.40;;;31.10;;
8665;SDS011;4370;48.916;8.380;2022-12-11T04:05:30;65.83;;;30.17;;
8665;SDS011;4370;48.916;8.380;2022-12-11T04:07:56;71.90;;;30.30;;
8665;SDS011;4370;48.916;8.380;2022-12-11T04:10:22;64.47;;;28.93;;
8665;SDS011;4370;48.916;8.380;2022-12-11T04:12:48;70.40;;;31.60;;
8665;SDS011;4370;48.916;8.380;2022-12-11T04:15:14;69.53;;;29.07;;
8665;SDS011;4370;48.916;8.380;2022-12-11T04:17:40;67.43;;;30.83;;
8665;SDS011;4370;48.916;8.380;2022-12-11T04:20:24;72.10;;;31.10;;
8665;SDS011;4370;48.916;8.380;2022-12-11T04:23:11;62.33;;;29.73;;
8665;SDS011;4370;48.916;8.380;2022-12-11T04:26:04;59.57;;;27.53;;
8665;SDS011;4370;48.916;8.380;2022-12-11T04:28:35;60.33;;;29.70;;
8665;SDS011;4370;48.916;8.380;2022-12-11T04:31:01;62.70;;;28.00;;
8665;SDS011;4370;48.916;8.380;2022-12-11T04:33:27;66.53;;;30.00;;
8665;SDS011;4370;48.916;8.380;2022-12-11T04:35:53;66.57;;;31.60;;
8665;SDS011;4370;48.916;8.380;2022-12-11T04:38:19;56.90;;;27.07;;
8665;SDS011;4370;48.916;8.380;2022-12-11T04:40:45;60.33;;;28.40;;
8665;SDS011;4370;48.916;8.380;2022-12-11T04:43:11;66.77;;;30.87;;
8665;SDS011;4370;48.916;8.380;2022-12-11T04:45:37;58.43;;;28.80;;
8665;SDS011;4370;48.916;8.380;2022-12-11T04:48:03;65.00;;;29.80;;
8665;SDS011;4370;48.916;8.380;2022-12-11T04:50:29;63.27;;;29.70;;
8665;SDS011;4370;48.916;8.380;2022-12-11T04:52:55;68.43;;;31.00;;
8665;SDS011;4370;48.916;8.380;2022-12-11T04:55:21;63.23;;;29.23;;
8665;SDS011;4370;48.916;8.380;2022-12-11T04:57:47;66.33;;;30.90;;
8665;SDS011;4370;48.916;8.380;2022-12-11T05:00:14;66.33;;;30.23;;
8665;SDS011;4370;48.916;8.380;2022-12-11T05:02:40;60.00;;;28.00;;
8665;SDS011;4370;48.916;8.380;2022-12-11T05:05:07;62.87;;;28.40;;
8665;SDS011;4370;48.916;8.380;2022-12-11T05:07:35;62.20;;;29.10;;
8665;SDS011;4370;48.916;8.380;2022-12-11T05:10:01;64.27;;;29.23;;
8665;SDS011;4370;48.916;8.380;2022-12-11T05:12:27;57.57;;;28.00;;
8665;SDS011;4370;48.916;8.380;2022-12-11T05:14:53;66.80;;;29.77;;
8665;SDS011;4370;48.916;8.380;2022-12-11T05:17:20;61.43;;;27.27;;
8665;SDS011;4370;48.916;8.380;2022-12-11T05:19:49;60.10;;;28.30;;
8665;SDS011;4370;48.916;8.380;2022-12-11T05:22:16;58.47;;;27.60;;
8665;SDS011;4370;48.916;8.380;2022-12-11T05:24:42;58.53;;;27.30;;
8665;SDS011;4370;48.916;8.380;2022-12-11T05:27:08;58.23;;;27.47;;
8665;SDS011;4370;48.916;8.380;2022-12-11T05:29:34;60.60;;;28.03;;
8665;SDS011;4370;48.916;8.380;2022-12-11T05:32:00;65.67;;;29.43;;
8665;SDS011;4370;48.916;8.380;2022-12-11T05:34:26;62.07;;;28.47;;
8665;SDS011;4370;48.916;8.380;2022-12-11T05:36:52;63.60;;;29.60;;
8665;SDS011;4370;48.916;8.380;2022-12-11T05:39:18;61.93;;;27.73;;
8665;SDS011;4370;48.916;8.380;2022-12-11T05:41:44;57.03;;;28.03;;
8665;SDS011;4370;48.916;8.380;2022-12-11T05:44:10;61.77;;;28.23;;
8665;SDS011;4370;48.916;8.380;2022-12-11T05:46:37;60.80;;;28.73;;
8665;SDS011;4370;48.916;8.380;2022-12-11T05:49:03;65.13;;;29.70;;
8665;SDS011;4370;48.916;8.380;2022-12-11T05:51:29;56.10;;;26.60;;
8665;SDS011;4370;48.916;8.380;2022-12-11T05:53:55;62.03;;;27.70;;
8665;SDS011;4370;48.916;8.380;2022-12-11T05:56:40;57.50;;;28.27;;
8665;SDS011;4370;48.916;8.380;2022-12-11T05:59:05;57.00;;;26.90;;
8665;SDS011;4370;48.916;8.380;2022-12-11T06:01:35;61.37;;;27.93;;
8665;SDS011;4370;48.916;8.380;2022-12-11T06:04:06;68.87;;;29.30;;
8665;SDS011;4370;48.916;8.380;2022-12-11T06:06:32;68.00;;;29.83;;
8665;SDS011;4370;48.916;8.380;2022-12-11T06:08:59;59.47;;;27.47;;
8665;SDS011;4370;48.916;8.380;2022-12-11T06:11:26;62.17;;;28.43;;
8665;SDS011;4370;48.916;8.380;2022-12-11T06:13:54;66.43;;;30.30;;
8665;SDS011;4370;48.916;8.380;2022-12-11T06:16:20;61.90;;;27.70;;
8665;SDS011;4370;48.916;8.380;2022-12-11T06:18:46;65.23;;;29.40;;
8665;SDS011;4370;48.916;8.380;2022-12-11T06:21:16;60.47;;;28.17;;
8665;SDS011;4370;48.916;8.380;2022-12-11T06:23:44;59.67;;;28.00;;
8665;SDS011;4370;48.916;8.380;2022-12-11T06:26:11;59.63;;;27.53;;
8665;SDS011;4370;48.916;8.380;2022-12-11T06:28:38;61.27;;;27.70;;
8665;SDS011;4370;48.916;8.380;2022-12-11T06:31:04;53.13;;;25.53;;
8665;SDS011;4370;48.916;8.380;2022-12-11T06:33:30;56.53;;;26.93;;
8665;SDS011;4370;48.916;8.380;2022-12-11T06:36:00;58.03;;;26.90;;
8665;SDS011;4370;48.916;8.380;2022-12-11T06:38:30;56.53;;;26.97;;
8665;SDS011;4370;48.916;8.380;2022-12-11T06:40:56;61.53;;;27.60;;
8665;SDS011;4370;48.916;8.380;2022-12-11T06:43:22;62.40;;;29.67;;
8665;SDS011;4370;48.916;8.380;2022-12-11T06:45:48;80.50;;;33.93;;
8665;SDS011;4370;48.916;8.380;2022-12-11T06:48:15;100.93;;;39.37;;
8665;SDS011;4370;48.916;8.380;2022-12-11T06:50:40;98.23;;;38.13;;
8665;SDS011;4370;48.916;8.380;2022-12-11T06:53:06;98.53;;;39.80;;
8665;SDS011;4370;48.916;8.380;2022-12-11T06:55:35;95.73;;;37.80;;
8665;SDS011;4370;48.916;8.380;2022-12-11T06:58:01;70.70;;;32.77;;
8665;SDS011;4370;48.916;8.380;2022-12-11T07:00:26;72.27;;;31.53;;
8665;SDS011;4370;48.916;8.380;2022-12-11T07:02:52;62.67;;;29.37;;
8665;SDS011;4370;48.916;8.380;2022-12-11T07:05:18;59.70;;;28.57;;
8665;SDS011;4370;48.916;8.380;2022-12-11T07:07:44;62.93;;;29.67;;
8665;SDS011;4370;48.916;8.380;2022-12-11T07:10:11;66.73;;;28.37;;
8665;SDS011;4370;48.916;8.380;2022-12-11T07:12:37;55.87;;;26.57;;
8665;SDS011;4370;48.916;8.380;2022-12-11T07:15:03;63.70;;;29.10;;
8665;SDS011;4370;48.916;8.380;2022-12-11T07:17:29;63.53;;;29.57;;
8665;SDS011;4370;48.916;8.380;2022-12-11T07:19:55;68.90;;;29.90;;
8665;SDS011;4370;48.916;8.380;2022-12-11T07:22:21;69.83;;;29.73;;
8665;SDS011;4370;48.916;8.380;2022-12-11T07:24:47;58.67;;;28.47;;
8665;SDS011;4370;48.916;8.380;2022-12-11T07:27:13;61.67;;;27.67;;
8665;SDS011;4370;48.916;8.380;2022-12-11T07:29:38;62.20;;;27.83;;
8665;SDS011;4370;48.916;8.380;2022-12-11T07:32:04;63.27;;;27.50;;
8665;SDS011;4370;48.916;8.380;2022-12-11T07:34:30;51.77;;;25.37;;
8665;SDS011;4370;48.916;8.380;2022-12-11T07:36:56;59.83;;;26.73;;
8665;SDS011;4370;48.916;8.380;2022-12-11T07:39:22;55.53;;;27.47;;
8665;SDS011;4370;48.916;8.380;2022-12-11T07:41:48;63.70;;;31.63;;
8665;SDS011;4370;48.916;8.380;2022-12-11T07:44:14;60.73;;;30.63;;
8665;SDS011;4370;48.916;8.380;2022-12-11T07:46:40;58.87;;;29.10;;
8665;SDS011;4370;48.916;8.380;2022-12-11T07:49:06;56.20;;;26.30;;
8665;SDS011;4370;48.916;8.380;2022-12-11T07:51:33;52.07;;;26.07;;
8665;SDS011;4370;48.916;8.380;2022-12-11T07:54:01;56.83;;;27.57;;
8665;SDS011;4370;48.916;8.380;2022-12-11T07:56:29;54.73;;;27.80;;
8665;SDS011;4370;48.916;8.380;2022-12-11T07:58:55;52.97;;;26.40;;
8665;SDS011;4370;48.916;8.380;2022-12-11T08:01:25;51.60;;;26.33;;
8665;SDS011;4370;48.916;8.380;2022-12-11T08:03:52;63.57;;;30.17;;
8665;SDS011;4370;48.916;8.380;2022-12-11T08:06:19;54.20;;;27.97;;
8665;SDS011;4370;48.916;8.380;2022-12-11T08:08:48;52.50;;;27.17;;
8665;SDS011;4370;48.916;8.380;2022-12-11T08:11:14;49.07;;;24.67;;
8665;SDS011;4370;48.916;8.380;2022-12-11T08:13:40;45.60;;;23.57;;
8665;SDS011;4370;48.916;8.380;2022-12-11T08:16:07;48.17;;;25.43;;
8665;SDS011;4370;48.916;8.380;2022-12-11T08:18:35;53.67;;;27.17;;
8665;SDS011;4370;48.916;8.380;2022-12-11T08:21:09;49.43;;;26.23;;
8665;SDS011;4370;48.916;8.380;2022-12-11T08:23:36;50.53;;;24.77;;
8665;SDS011;4370;48.916;8.380;2022-12-11T08:26:03;48.80;;;24.73;;
8665;SDS011;4370;48.916;8.380;2022-12-11T08:28:30;52.03;;;25.13;;
8665;SDS011;4370;48.916;8.380;2022-12-11T08:30:56;48.53;;;23.57;;
8665;SDS011;4370;48.916;8.380;2022-12-11T08:33:21;51.47;;;24.90;;
8665;SDS011;4370;48.916;8.380;2022-12-11T08:35:47;45.03;;;23.07;;
8665;SDS011;4370;48.916;8.380;2022-12-11T08:38:13;47.03;;;23.37;;
8665;SDS011;4370;48.916;8.380;2022-12-11T08:40:39;47.37;;;24.83;;
8665;SDS011;4370;48.916;8.380;2022-12-11T08:43:05;56.83;;;24.20;;
8665;SDS011;4370;48.916;8.380;2022-12-11T08:45:31;44.63;;;23.60;;
8665;SDS011;4370;48.916;8.380;2022-12-11T08:47:57;45.43;;;22.70;;
8665;SDS011;4370;48.916;8.380;2022-12-11T08:50:23;46.27;;;22.90;;
8665;SDS011;4370;48.916;8.380;2022-12-11T08:52:49;46.53;;;23.33;;
8665;SDS011;4370;48.916;8.380;2022-12-11T08:55:15;44.90;;;23.27;;
8665;SDS011;4370;48.916;8.380;2022-12-11T08:57:41;42.63;;;22.87;;
8665;SDS011;4370;48.916;8.380;2022-12-11T09:00:07;45.17;;;22.83;;
8665;SDS011;4370;48.916;8.380;2022-12-11T09:02:36;43.40;;;22.53;;
8665;SDS011;4370;48.916;8.380;2022-12-11T09:05:02;41.60;;;21.87;;
8665;SDS011;4370;48.916;8.380;2022-12-11T09:07:31;48.17;;;23.17;;
8665;SDS011;4370;48.916;8.380;2022-12-11T09:09:57;44.57;;;23.97;;
8665;SDS011;4370;48.916;8.380;2022-12-11T09:12:23;46.23;;;22.93;;
8665;SDS011;4370;48.916;8.380;2022-12-11T09:14:49;41.57;;;21.93;;
8665;SDS011;4370;48.916;8.380;2022-12-11T09:17:15;43.57;;;23.77;;
8665;SDS011;4370;48.916;8.380;2022-12-11T09:19:41;45.70;;;23.03;;
8665;SDS011;4370;48.916;8.380;2022-12-11T09:22:06;45.60;;;23.43;;
8665;SDS011;4370;48.916;8.380;2022-12-11T09:24:35;45.30;;;23.67;;
8665;SDS011;4370;48.916;8.380;2022-12-11T09:27:01;41.67;;;21.60;;
8665;SDS011;4370;48.916;8.380;2022-12-11T09:29:27;41.87;;;22.37;;
8665;SDS011;4370;48.916;8.380;2022-12-11T09:31:53;45.03;;;22.40;;
8665;SDS011;4370;48.916;8.380;2022-12-11T09:34:20;44.47;;;23.63;;
8665;SDS011;4370;48.916;8.380;2022-12-11T09:36:46;47.27;;;24.33;;
8665;SDS011;4370;48.916;8.380;2022-12-11T09:39:12;45.73;;;23.53;;
8665;SDS011;4370;48.916;8.380;2022-12-11T09:41:47;48.77;;;24.30;;
8665;SDS011;4370;48.916;8.380;2022-12-11T09:44:50;47.27;;;24.87;;
8665;SDS011;4370;48.916;8.380;2022-12-11T09:47:20;48.60;;;26.13;;
8665;SDS011;4370;48.916;8.380;2022-12-11T09:50:14;47.13;;;24.87;;
8665;SDS011;4370;48.916;8.380;2022-12-11T09:55:14;46.30;;;23.70;;
8665;SDS011;4370;48.916;8.380;2022-12-11T10:06:05;48.00;;;25.87;;
8665;SDS011;4370;48.916;8.380;2022-12-11T10:09:02;44.20;;;24.77;;
8665;SDS011;4370;48.916;8.380;2022-12-11T10:14:37;47.33;;;25.93;;
8665;SDS011;4370;48.916;8.380;2022-12-11T10:19:42;43.80;;;24.00;;
8665;SDS011;4370;48.916;8.380;2022-12-11T10:22:11;46.77;;;25.30;;
8665;SDS011;4370;48.916;8.380;2022-12-11T10:24:44;42.60;;;24.27;;
8665;SDS011;4370;48.916;8.380;2022-12-11T10:27:19;45.87;;;25.43;;
8665;SDS011;4370;48.916;8.380;2022-12-11T10:29:46;46.07;;;24.50;;
8665;SDS011;4370;48.916;8.380;2022-12-11T10:32:41;54.77;;;26.63;;
8665;SDS011;4370;48.916;8.380;2022-12-11T10:35:24;44.13;;;25.17;;
8665;SDS011;4370;48.916;8.380;2022-12-11T10:37:56;47.33;;;26.37;;
8665;SDS011;4370;48.916;8.380;2022-12-11T10:40:27;47.57;;;25.60;;
8665;SDS011;4370;48.916;8.380;2022-12-11T10:42:55;44.57;;;24.00;;
8665;SDS011;4370;48.916;8.380;2022-12-11T10:45:21;44.70;;;25.30;;
8665;SDS011;4370;48.916;8.380;2022-12-11T10:47:47;46.97;;;25.07;;
8665;SDS011;4370;48.916;8.380;2022-12-11T10:50:23;42.67;;;24.20;;
8665;SDS011;4370;48.916;8.380;2022-12-11T10:52:50;40.57;;;23.00;;
8665;SDS011;4370;48.916;8.380;2022-12-11T10:55:21;41.70;;;22.73;;
8665;SDS011;4370;48.916;8.380;2022-12-11T10:58:00;42.27;;;23.47;;
8665;SDS011;4370;48.916;8.380;2022-12-11T11:00:38;40.43;;;22.57;;
8665;SDS011;4370;48.916;8.380;2022-12-11T11:03:16;38.53;;;22.00;;
8665;SDS011;4370;48.916;8.380;2022-12-11T11:05:48;39.80;;;22.17;;
8665;SDS011;4370;48.916;8.380;2022-12-11T11:08:16;36.53;;;22.30;;
8665;SDS011;4370;48.916;8.380;2022-12-11T11:13:20;38.20;;;23.13;;
8665;SDS011;4370;48.916;8.380;2022-12-11T11:15:48;35.27;;;21.07;;
8665;SDS011;4370;48.916;8.380;2022-12-11T11:18:17;35.83;;;20.97;;
8665;SDS011;4370;48.916;8.380;2022-12-11T11:20:49;32.77;;;19.23;;
8665;SDS011;4370;48.916;8.380;2022-12-11T11:23:15;34.70;;;20.73;;
8665;SDS011;4370;48.916;8.380;2022-12-11T11:25:47;32.77;;;19.37;;
8665;SDS011;4370;48.916;8.380;2022-12-11T11:28:17;29.50;;;18.30;;
8665;SDS011;4370;48.916;8.380;2022-12-11T11:31:01;29.47;;;18.87;;
8665;SDS011;4370;48.916;8.380;2022-12-11T11:33:29;30.57;;;17.77;;
8665;SDS011;4370;48.916;8.380;2022-12-11T11:36:01;31.27;;;18.00;;
8665;SDS011;4370;48.916;8.380;2022-12-11T11:43:45;26.30;;;16.43;;
8665;SDS011;4370;48.916;8.380;2022-12-11T11:51:23;29.00;;;16.77;;
8665;SDS011;4370;48.916;8.380;2022-12-11T11:53:56;28.33;;;17.43;;
8665;SDS011;4370;48.916;8.380;2022-12-11T11:56:26;30.93;;;19.53;;
8665;SDS011;4370;48.916;8.380;2022-12-11T12:02:08;55.20;;;26.70;;
8665;SDS011;4370;48.916;8.380;2022-12-11T12:04:39;58.27;;;27.63;;
8665;SDS011;4370;48.916;8.380;2022-12-11T12:12:31;30.10;;;18.03;;
8665;SDS011;4370;48.916;8.380;2022-12-11T12:17:52;39.23;;;22.73;;
8665;SDS011;4370;48.916;8.380;2022-12-11T12:20:27;36.87;;;21.90;;
8665;SDS011;4370;48.916;8.380;2022-12-11T12:25:49;33.30;;;19.37;;
8665;SDS011;4370;48.916;8.380;2022-12-11T12:28:48;35.37;;;20.37;;
8665;SDS011;4370;48.916;8.380;2022-12-11T12:37:35;30.90;;;18.93;;
8665;SDS011;4370;48.916;8.380;2022-12-11T12:40:16;27.37;;;17.40;;
8665;SDS011;4370;48.916;8.380;2022-12-11T12:42:59;28.60;;;17.90;;
8665;SDS011;4370;48.916;8.380;2022-12-11T12:45:48;31.87;;;18.73;;
8665;SDS011;4370;48.916;8.380;2022-12-11T12:48:28;27.17;;;16.90;;
8665;SDS011;4370;48.916;8.380;2022-12-11T12:50:54;26.37;;;16.73;;
8665;SDS011;4370;48.916;8.380;2022-12-11T12:53:25;28.97;;;17.73;;
8665;SDS011;4370;48.916;8.380;2022-12-11T12:55:53;28.10;;;17.17;;
8665;SDS011;4370;48.916;8.380;2022-12-11T13:08:55;26.60;;;16.87;;
8665;SDS011;4370;48.916;8.380;2022-12-11T13:11:29;26.07;;;16.23;;
8665;SDS011;4370;48.916;8.380;2022-12-11T13:14:20;23.87;;;15.40;;
8665;SDS011;4370;48.916;8.380;2022-12-11T13:16:51;25.83;;;16.47;;
8665;SDS011;4370;48.916;8.380;2022-12-11T13:22:32;27.37;;;17.13;;
8665;SDS011;4370;48.916;8.380;2022-12-11T13:24:46;28.60;;;18.13;;
8665;SDS011;4370;48.916;8.380;2022-12-11T13:27:35;27.20;;;17.10;;
8665;SDS011;4370;48.916;8.380;2022-12-11T13:30:06;29.83;;;19.37;;
8665;SDS011;4370;48.916;8.380;2022-12-11T13:32:38;29.90;;;19.20;;
8665;SDS011;4370;48.916;8.380;2022-12-11T13:35:06;28.27;;;18.13;;
8665;SDS011;4370;48.916;8.380;2022-12-11T13:37:39;27.77;;;18.23;;
8665;SDS011;4370;48.916;8.380;2022-12-11T13:40:14;32.67;;;18.30;;
8665;SDS011;4370;48.916;8.380;2022-12-11T13:43:05;30.37;;;19.07;;
8665;SDS011;4370;48.916;8.380;2022-12-11T13:45:56;31.27;;;19.43;;
8665;SDS011;4370;48.916;8.380;2022-12-11T13:48:26;31.63;;;19.77;;
8665;SDS011;4370;48.916;8.380;2022-12-11T13:51:01;33.30;;;19.90;;
8665;SDS011;4370;48.916;8.380;2022-12-11T13:53:28;30.77;;;19.33;;
8665;SDS011;4370;48.916;8.380;2022-12-11T13:56:01;29.87;;;19.40;;
8665;SDS011;4370;48.916;8.380;2022-12-11T13:58:36;27.77;;;17.73;;
8665;SDS011;4370;48.916;8.380;2022-12-11T14:01:16;28.77;;;17.27;;
8665;SDS011;4370;48.916;8.380;2022-12-11T14:04:01;30.23;;;18.63;;
8665;SDS011;4370;48.916;8.380;2022-12-11T14:06:31;29.90;;;18.50;;
8665;SDS011;4370;48.916;8.380;2022-12-11T14:08:59;28.40;;;18.23;;
8665;SDS011;4370;48.916;8.380;2022-12-11T14:11:26;33.73;;;20.23;;
8665;SDS011;4370;48.916;8.380;2022-12-11T14:13:59;30.00;;;19.23;;
8665;SDS011;4370;48.916;8.380;2022-12-11T14:16:27;32.93;;;19.90;;
8665;SDS011;4370;48.916;8.380;2022-12-11T14:18:54;31.27;;;18.77;;
8665;SDS011;4370;48.916;8.380;2022-12-11T14:21:29;31.63;;;19.83;;
8665;SDS011;4370;48.916;8.380;2022-12-11T14:23:56;29.63;;;18.73;;
8665;SDS011;4370;48.916;8.380;2022-12-11T14:26:31;31.63;;;18.00;;
8665;SDS011;4370;48.916;8.380;2022-12-11T14:28:58;28.77;;;17.70;;
8665;SDS011;4370;48.916;8.380;2022-12-11T14:33:51;38.93;;;23.13;;
8665;SDS011;4370;48.916;8.380;2022-12-11T14:36:21;37.40;;;21.43;;
8665;SDS011;4370;48.916;8.380;2022-12-11T14:38:48;39.90;;;22.77;;
8665;SDS011;4370;48.916;8.380;2022-12-11T14:41:27;49.97;;;27.57;;
8665;SDS011;4370;48.916;8.380;2022-12-11T14:43:59;41.13;;;23.73;;
8665;SDS011;4370;48.916;8.380;2022-12-11T14:46:32;38.73;;;21.93;;
8665;SDS011;4370;48.916;8.380;2022-12-11T14:49:10;38.70;;;22.40;;
8665;SDS011;4370;48.916;8.380;2022-12-11T14:51:44;33.07;;;19.27;;
8665;SDS011;4370;48.916;8.380;2022-12-11T14:54:14;32.33;;;19.63;;
8665;SDS011;4370;48.916;8.380;2022-12-11T14:56:56;33.53;;;19.50;;
8665;SDS011;4370;48.916;8.380;2022-12-11T14:59:23;31.30;;;17.60;;
8665;SDS011;4370;48.916;8.380;2022-12-11T15:02:01;29.97;;;17.70;;
8665;SDS011;4370;48.916;8.380;2022-12-11T15:04:42;29.60;;;18.10;;
8665;SDS011;4370;48.916;8.380;2022-12-11T15:07:17;32.10;;;19.03;;
8665;SDS011;4370;48.916;8.380;2022-12-11T15:09:45;28.30;;;17.27;;
8665;SDS011;4370;48.916;8.380;2022-12-11T15:12:11;28.53;;;17.40;;
8665;SDS011;4370;48.916;8.380;2022-12-11T15:14:49;31.50;;;18.93;;
8665;SDS011;4370;48.916;8.380;2022-12-11T15:17:17;28.27;;;17.20;;
8665;SDS011;4370;48.916;8.380;2022-12-11T15:19:47;33.27;;;19.60;;
8665;SDS011;4370;48.916;8.380;2022-12-11T15:22:15;32.80;;;21.90;;
8665;SDS011;4370;48.916;8.380;2022-12-11T15:24:43;36.57;;;22.30;;
8665;SDS011;4370;48.916;8.380;2022-12-11T15:27:24;32.53;;;20.60;;
8665;SDS011;4370;48.916;8.380;2022-12-11T15:32:45;30.60;;;18.87;;
8665;SDS011;4370;48.916;8.380;2022-12-11T15:37:51;30.83;;;18.53;;
8665;SDS011;4370;48.916;8.380;2022-12-11T15:40:18;29.97;;;19.27;;
8665;SDS011;4370;48.916;8.380;2022-12-11T15:42:44;35.47;;;21.03;;
8665;SDS011;4370;48.916;8.380;2022-12-11T15:45:23;38.30;;;22.07;;
8665;SDS011;4370;48.916;8.380;2022-12-11T15:47:50;37.30;;;22.53;;
8665;SDS011;4370;48.916;8.380;2022-12-11T15:52:42;31.53;;;19.30;;
8665;SDS011;4370;48.916;8.380;2022-12-11T15:55:08;34.23;;;20.63;;
8665;SDS011;4370;48.916;8.380;2022-12-11T15:57:35;31.77;;;19.30;;
8665;SDS011;4370;48.916;8.380;2022-12-11T16:00:02;34.07;;;20.17;;
8665;SDS011;4370;48.916;8.380;2022-12-11T16:02:30;35.53;;;21.37;;
8665;SDS011;4370;48.916;8.380;2022-12-11T16:04:56;34.13;;;19.90;;
8665;SDS011;4370;48.916;8.380;2022-12-11T16:07:22;31.50;;;19.60;;
8665;SDS011;4370;48.916;8.380;2022-12-11T16:09:50;36.83;;;21.43;;
8665;SDS011;4370;48.916;8.380;2022-12-11T16:12:16;33.37;;;20.33;;
8665;SDS011;4370;48.916;8.380;2022-12-11T16:14:42;36.60;;;21.47;;
8665;SDS011;4370;48.916;8.380;2022-12-11T16:17:09;32.73;;;20.83;;
8665;SDS011;4370;48.916;8.380;2022-12-11T16:19:37;35.40;;;20.63;;
8665;SDS011;4370;48.916;8.380;2022-12-11T16:22:03;34.57;;;20.63;;
8665;SDS011;4370;48.916;8.380;2022-12-11T16:24:29;34.77;;;20.53;;